sensor_id;sensor_type;location;lat;lon;timestamp;pressure;altitude;pressure_sealevel;temperature;humidity
45813;BME280;31519;45.408;10.962;2023-05-01T00:01:53;100595.75;;;21.80;50.64
45813;BME280;31519;45.408;10.962;2023-05-01T00:04:21;100598.44;;;21.76;50.68
45813;BME280;31519;45.408;10.962;2023-05-01T00:06:49;100606.44;;;21.58;51.02
45813;BME280;31519;45.408;10.962;2023-05-01T00:09:17;100598.44;;;21.80;50.20
45813;BME280;31519;45.408;10.962;2023-05-01T00:11:46;100601.94;;;21.80;49.86
45813;BME280;31519;45.408;10.962;2023-05-01T00:14:28;100607.38;;;21.84;49.18
45813;BME280;31519;45.408;10.962;2023-05-01T00:16:56;100611.78;;;21.99;48.41
45813;BME280;31519;45.408;10.962;2023-05-01T00:19:24;100605.88;;;21.90;48.30
45813;BME280;31519;45.408;10.962;2023-05-01T00:21:53;100599.09;;;21.62;47.58
45813;BME280;31519;45.408;10.962;2023-05-01T00:24:20;100596.88;;;21.75;47.31
45813;BME280;31519;45.408;10.962;2023-05-01T00:26:49;100602.88;;;22.02;46.62
45813;BME280;31519;45.408;10.962;2023-05-01T00:29:17;100598.19;;;21.95;46.11
45813;BME280;31519;45.408;10.962;2023-05-01T00:31:45;100595.78;;;21.87;45.89
45813;BME280;31519;45.408;10.962;2023-05-01T00:34:14;100598.03;;;21.74;45.55
45813;BME280;31519;45.408;10.962;2023-05-01T00:36:42;100597.56;;;21.65;45.87
45813;BME280;31519;45.408;10.962;2023-05-01T00:39:10;100590.41;;;21.90;44.85
45813;BME280;31519;45.408;10.962;2023-05-01T00:41:39;100585.34;;;21.89;44.86
45813;BME280;31519;45.408;10.962;2023-05-01T00:44:07;100591.00;;;21.70;45.08
45813;BME280;31519;45.408;10.962;2023-05-01T00:46:35;100586.88;;;21.86;44.55
45813;BME280;31519;45.408;10.962;2023-05-01T00:49:04;100597.25;;;21.74;44.58
45813;BME280;31519;45.408;10.962;2023-05-01T00:51:32;100584.84;;;21.73;44.54
45813;BME280;31519;45.408;10.962;2023-05-01T00:54:01;100587.28;;;21.88;43.75
45813;BME280;31519;45.408;10.962;2023-05-01T00:56:30;100596.19;;;21.89;44.01
45813;BME280;31519;45.408;10.962;2023-05-01T00:58:58;100593.81;;;21.80;43.87
45813;BME280;31519;45.408;10.962;2023-05-01T01:01:27;100592.66;;;21.81;44.07
45813;BME280;31519;45.408;10.962;2023-05-01T01:03:55;100585.59;;;21.70;44.11
45813;BME280;31519;45.408;10.962;2023-05-01T01:06:55;100594.88;;;21.68;44.22
45813;BME280;31519;45.408;10.962;2023-05-01T01:09:41;100595.88;;;21.94;43.79
45813;BME280;31519;45.408;10.962;2023-05-01T01:12:26;100593.41;;;21.82;44.07
45813;BME280;31519;45.408;10.962;2023-05-01T01:31:46;100588.63;;;21.57;45.19
45813;BME280;31519;45.408;10.962;2023-05-01T01:34:25;100601.03;;;21.62;45.30
45813;BME280;31519;45.408;10.962;2023-05-01T01:37:02;100606.38;;;21.51;45.45
45813;BME280;31519;45.408;10.962;2023-05-01T01:39:55;100612.25;;;21.60;45.70
45813;BME280;31519;45.408;10.962;2023-05-01T01:42:35;100608.09;;;21.74;45.16
45813;BME280;31519;45.408;10.962;2023-05-01T01:45:11;100604.63;;;21.77;45.11
45813;BME280;31519;45.408;10.962;2023-05-01T01:47:42;100603.16;;;21.39;45.52
45813;BME280;31519;45.408;10.962;2023-05-01T01:50:13;100601.25;;;21.39;45.49
45813;BME280;31519;45.408;10.962;2023-05-01T01:52:46;100611.75;;;21.48;44.95
45813;BME280;31519;45.408;10.962;2023-05-01T01:55:20;100613.75;;;21.54;44.63
45813;BME280;31519;45.408;10.962;2023-05-01T01:57:50;100607.44;;;21.40;44.47
45813;BME280;31519;45.408;10.962;2023-05-01T02:00:20;100625.22;;;21.41;44.71
45813;BME280;31519;45.408;10.962;2023-05-01T02:02:51;100622.88;;;21.36;44.21
45813;BME280;31519;45.408;10.962;2023-05-01T02:05:22;100618.84;;;21.19;44.74
45813;BME280;31519;45.408;10.962;2023-05-01T02:07:52;100627.44;;;21.28;44.66
45813;BME280;31519;45.408;10.962;2023-05-01T02:10:21;100619.69;;;21.27;44.52
45813;BME280;31519;45.408;10.962;2023-05-01T02:12:50;100619.31;;;21.28;43.97
45813;BME280;31519;45.408;10.962;2023-05-01T02:15:20;100618.16;;;21.26;43.87
45813;BME280;31519;45.408;10.962;2023-05-01T02:17:51;100615.84;;;21.31;43.57
45813;BME280;31519;45.408;10.962;2023-05-01T02:20:21;100610.72;;;21.19;44.03
45813;BME280;31519;45.408;10.962;2023-05-01T02:22:52;100617.47;;;20.99;44.58
45813;BME280;31519;45.408;10.962;2023-05-01T02:25:20;100609.28;;;20.95;44.63
45813;BME280;31519;45.408;10.962;2023-05-01T02:27:56;100602.81;;;21.03;44.61
45813;BME280;31519;45.408;10.962;2023-05-01T02:30:27;100613.19;;;20.98;44.45
45813;BME280;31519;45.408;10.962;2023-05-01T02:32:55;100610.97;;;21.07;44.66
45813;BME280;31519;45.408;10.962;2023-05-01T02:35:24;100604.22;;;21.27;44.18
45813;BME280;31519;45.408;10.962;2023-05-01T02:37:52;100608.59;;;21.02;44.77
45813;BME280;31519;45.408;10.962;2023-05-01T02:40:21;100602.81;;;21.03;44.48
45813;BME280;31519;45.408;10.962;2023-05-01T02:42:50;100607.47;;;21.06;44.49
45813;BME280;31519;45.408;10.962;2023-05-01T02:45:22;100602.59;;;20.86;44.91
45813;BME280;31519;45.408;10.962;2023-05-01T02:47:55;100601.13;;;20.92;44.48
45813;BME280;31519;45.408;10.962;2023-05-01T02:50:25;100601.16;;;20.95;44.72
45813;BME280;31519;45.408;10.962;2023-05-01T02:52:54;100594.31;;;21.08;44.58
45813;BME280;31519;45.408;10.962;2023-05-01T02:55:37;100604.00;;;20.72;45.61
45813;BME280;31519;45.408;10.962;2023-05-01T02:58:06;100594.22;;;20.98;44.84
45813;BME280;31519;45.408;10.962;2023-05-01T03:00:34;100600.38;;;20.95;44.93
45813;BME280;31519;45.408;10.962;2023-05-01T03:03:02;100598.78;;;20.90;44.95
45813;BME280;31519;45.408;10.962;2023-05-01T03:05:31;100590.66;;;20.90;45.26
45813;BME280;31519;45.408;10.962;2023-05-01T03:07:59;100594.69;;;21.03;45.03
45813;BME280;31519;45.408;10.962;2023-05-01T03:10:28;100597.25;;;20.89;45.28
45813;BME280;31519;45.408;10.962;2023-05-01T03:12:56;100594.50;;;20.52;45.43
45813;BME280;31519;45.408;10.962;2023-05-01T03:15:24;100589.91;;;20.56;45.71
45813;BME280;31519;45.408;10.962;2023-05-01T03:17:53;100584.28;;;20.39;46.03
45813;BME280;31519;45.408;10.962;2023-05-01T03:20:22;100598.09;;;20.63;45.57
45813;BME280;31519;45.408;10.962;2023-05-01T03:22:52;100597.06;;;20.15;46.44
45813;BME280;31519;45.408;10.962;2023-05-01T03:25:21;100594.38;;;20.45;46.00
45813;BME280;31519;45.408;10.962;2023-05-01T03:27:49;100597.06;;;20.42;45.56
45813;BME280;31519;45.408;10.962;2023-05-01T03:30:19;100594.34;;;20.42;45.86
45813;BME280;31519;45.408;10.962;2023-05-01T03:32:47;100592.75;;;20.37;45.89
45813;BME280;31519;45.408;10.962;2023-05-01T03:35:22;100593.75;;;20.55;44.92
45813;BME280;31519;45.408;10.962;2023-05-01T03:37:50;100586.44;;;20.59;45.06
45813;BME280;31519;45.408;10.962;2023-05-01T03:40:45;100585.38;;;20.67;44.62
45813;BME280;31519;45.408;10.962;2023-05-01T03:43:36;100592.78;;;20.70;44.18
45813;BME280;31519;45.408;10.962;2023-05-01T03:46:10;100587.66;;;20.62;44.22
45813;BME280;31519;45.408;10.962;2023-05-01T03:48:38;100586.25;;;20.42;44.27
45813;BME280;31519;45.408;10.962;2023-05-01T03:51:06;100588.13;;;20.38;43.83
45813;BME280;31519;45.408;10.962;2023-05-01T03:53:36;100584.78;;;20.48;43.44
45813;BME280;31519;45.408;10.962;2023-05-01T03:56:06;100586.81;;;20.58;42.85
45813;BME280;31519;45.408;10.962;2023-05-01T03:58:35;100582.47;;;20.50;42.93
45813;BME280;31519;45.408;10.962;2023-05-01T04:01:05;100584.78;;;20.48;42.83
45813;BME280;31519;45.408;10.962;2023-05-01T04:03:36;100587.91;;;20.53;42.32
45813;BME280;31519;45.408;10.962;2023-05-01T04:06:06;100580.81;;;20.71;41.55
45813;BME280;31519;45.408;10.962;2023-05-01T04:08:34;100582.75;;;20.41;41.58
45813;BME280;31519;45.408;10.962;2023-05-01T04:11:03;100588.34;;;20.55;40.94
45813;BME280;31519;45.408;10.962;2023-05-01T04:13:31;100576.75;;;20.58;40.27
45813;BME280;31519;45.408;10.962;2023-05-01T04:15:59;100586.22;;;20.71;39.60
45813;BME280;31519;45.408;10.962;2023-05-01T04:18:27;100579.72;;;20.79;39.64
45813;BME280;31519;45.408;10.962;2023-05-01T04:20:59;100581.47;;;20.61;39.38
45813;BME280;31519;45.408;10.962;2023-05-01T04:23:27;100580.31;;;20.32;39.81
45813;BME280;31519;45.408;10.962;2023-05-01T04:25:58;100585.88;;;20.43;39.42
45813;BME280;31519;45.408;10.962;2023-05-01T04:28:27;100582.13;;;20.25;38.66
45813;BME280;31519;45.408;10.962;2023-05-01T04:30:57;100582.97;;;20.29;39.04
45813;BME280;31519;45.408;10.962;2023-05-01T04:33:25;100589.75;;;20.46;38.22
45813;BME280;31519;45.408;10.962;2023-05-01T04:35:55;100586.56;;;20.10;38.21
45813;BME280;31519;45.408;10.962;2023-05-01T04:38:22;100591.75;;;20.22;38.07
45813;BME280;31519;45.408;10.962;2023-05-01T04:40:54;100589.50;;;20.28;37.66
45813;BME280;31519;45.408;10.962;2023-05-01T04:43:22;100595.41;;;20.33;37.89
45813;BME280;31519;45.408;10.962;2023-05-01T04:45:51;100596.66;;;20.13;38.07
45813;BME280;31519;45.408;10.962;2023-05-01T04:48:21;100595.41;;;20.33;37.96
45813;BME280;31519;45.408;10.962;2023-05-01T04:50:49;100596.06;;;20.27;38.39
45813;BME280;31519;45.408;10.962;2023-05-01T04:53:17;100591.38;;;20.24;38.37
45813;BME280;31519;45.408;10.962;2023-05-01T04:55:46;100597.13;;;20.19;38.32
45813;BME280;31519;45.408;10.962;2023-05-01T04:58:15;100603.38;;;20.26;38.38
45813;BME280;31519;45.408;10.962;2023-05-01T05:00:46;100594.66;;;20.37;38.51
45813;BME280;31519;45.408;10.962;2023-05-01T05:03:20;100598.69;;;20.20;38.66
45813;BME280;31519;45.408;10.962;2023-05-01T05:05:49;100596.06;;;20.27;38.70
45813;BME280;31519;45.408;10.962;2023-05-01T05:08:17;100594.66;;;20.37;38.42
45813;BME280;31519;45.408;10.962;2023-05-01T05:10:58;100596.13;;;20.30;38.59
45813;BME280;31519;45.408;10.962;2023-05-01T05:13:33;100602.03;;;20.40;38.65
45813;BME280;31519;45.408;10.962;2023-05-01T05:16:06;100600.22;;;20.47;38.46
45813;BME280;31519;45.408;10.962;2023-05-01T05:18:34;100590.50;;;20.43;38.60
45813;BME280;31519;45.408;10.962;2023-05-01T05:21:04;100591.84;;;20.59;38.22
45813;BME280;31519;45.408;10.962;2023-05-01T05:23:32;100584.44;;;20.86;37.96
45813;BME280;31519;45.408;10.962;2023-05-01T05:26:00;100600.31;;;20.54;38.49
45813;BME280;31519;45.408;10.962;2023-05-01T05:28:30;100605.31;;;20.52;38.67
45813;BME280;31519;45.408;10.962;2023-05-01T05:30:58;100602.22;;;20.54;38.54
45813;BME280;31519;45.408;10.962;2023-05-01T05:33:26;100600.47;;;20.68;38.64
45813;BME280;31519;45.408;10.962;2023-05-01T05:35:57;100596.69;;;20.43;38.70
45813;BME280;31519;45.408;10.962;2023-05-01T05:38:33;100594.03;;;20.80;38.12
45813;BME280;31519;45.408;10.962;2023-05-01T05:41:03;100601.84;;;20.52;38.69
45813;BME280;31519;45.408;10.962;2023-05-01T05:43:31;100599.91;;;20.52;38.42
45813;BME280;31519;45.408;10.962;2023-05-01T05:45:59;100613.28;;;20.42;38.77
45813;BME280;31519;45.408;10.962;2023-05-01T05:48:30;100611.84;;;20.48;38.73
45813;BME280;31519;45.408;10.962;2023-05-01T05:50:58;100612.94;;;20.43;38.73
45813;BME280;31519;45.408;10.962;2023-05-01T05:53:26;100626.06;;;20.45;39.00
45813;BME280;31519;45.408;10.962;2023-05-01T05:55:55;100619.56;;;20.49;38.87
45813;BME280;31519;45.408;10.962;2023-05-01T05:58:23;100627.19;;;20.70;38.59
45813;BME280;31519;45.408;10.962;2023-05-01T06:00:51;100618.19;;;20.62;38.89
45813;BME280;31519;45.408;10.962;2023-05-01T06:03:22;100618.44;;;20.50;39.02
45813;BME280;31519;45.408;10.962;2023-05-01T06:05:54;100625.38;;;20.48;39.22
45813;BME280;31519;45.408;10.962;2023-05-01T06:08:22;100621.25;;;20.31;39.53
45813;BME280;31519;45.408;10.962;2023-05-01T06:10:51;100625.25;;;20.41;39.39
45813;BME280;31519;45.408;10.962;2023-05-01T06:13:19;100626.03;;;20.41;39.54
45813;BME280;31519;45.408;10.962;2023-05-01T06:15:49;100623.97;;;20.61;39.46
45813;BME280;31519;45.408;10.962;2023-05-01T06:18:17;100622.66;;;20.48;39.45
45813;BME280;31519;45.408;10.962;2023-05-01T06:20:45;100625.25;;;20.70;39.41
45813;BME280;31519;45.408;10.962;2023-05-01T06:23:14;100618.28;;;20.40;39.73
45813;BME280;31519;45.408;10.962;2023-05-01T06:25:54;100616.97;;;20.56;39.97
45813;BME280;31519;45.408;10.962;2023-05-01T06:28:22;100621.44;;;20.45;40.16
45813;BME280;31519;45.408;10.962;2023-05-01T06:30:51;100623.00;;;20.76;39.65
45813;BME280;31519;45.408;10.962;2023-05-01T06:33:20;100611.19;;;20.95;39.05
45813;BME280;31519;45.408;10.962;2023-05-01T06:36:00;100618.41;;;21.13;38.99
45813;BME280;31519;45.408;10.962;2023-05-01T06:38:29;100620.09;;;20.95;39.28
45813;BME280;31519;45.408;10.962;2023-05-01T06:41:00;100629.72;;;21.22;39.09
45813;BME280;31519;45.408;10.962;2023-05-01T06:43:28;100627.56;;;21.05;39.41
45813;BME280;31519;45.408;10.962;2023-05-01T06:45:58;100633.97;;;21.20;39.30
45813;BME280;31519;45.408;10.962;2023-05-01T06:48:26;100640.06;;;21.13;39.23
45813;BME280;31519;45.408;10.962;2023-05-01T06:50:54;100636.72;;;21.27;39.33
45813;BME280;31519;45.408;10.962;2023-05-01T06:53:22;100633.88;;;21.13;39.75
45813;BME280;31519;45.408;10.962;2023-05-01T06:55:51;100628.22;;;21.29;39.62
45813;BME280;31519;45.408;10.962;2023-05-01T06:58:18;100634.09;;;21.34;39.91
45813;BME280;31519;45.408;10.962;2023-05-01T07:00:52;100636.94;;;21.11;40.05
45813;BME280;31519;45.408;10.962;2023-05-01T07:03:20;100637.25;;;21.40;39.70
45813;BME280;31519;45.408;10.962;2023-05-01T07:05:50;100633.59;;;21.21;40.29
45813;BME280;31519;45.408;10.962;2023-05-01T07:08:17;100631.72;;;21.29;39.99
45813;BME280;31519;45.408;10.962;2023-05-01T07:10:46;100624.22;;;21.56;39.65
45813;BME280;31519;45.408;10.962;2023-05-01T07:13:16;100628.16;;;21.65;39.82
45813;BME280;31519;45.408;10.962;2023-05-01T07:15:45;100621.97;;;21.65;39.24
45813;BME280;31519;45.408;10.962;2023-05-01T07:18:13;100616.06;;;21.52;39.08
45813;BME280;31519;45.408;10.962;2023-05-01T07:20:41;100618.78;;;21.56;39.06
45813;BME280;31519;45.408;10.962;2023-05-01T07:23:09;100615.88;;;21.79;38.53
45813;BME280;31519;45.408;10.962;2023-05-01T07:25:38;100613.63;;;21.91;38.44
45813;BME280;31519;45.408;10.962;2023-05-01T07:28:08;100616.03;;;22.00;37.88
45813;BME280;31519;45.408;10.962;2023-05-01T07:30:36;100619.50;;;21.93;37.77
45813;BME280;31519;45.408;10.962;2023-05-01T07:33:04;100611.53;;;21.67;37.65
45813;BME280;31519;45.408;10.962;2023-05-01T07:35:33;100624.28;;;21.63;37.63
45813;BME280;31519;45.408;10.962;2023-05-01T07:38:00;100624.88;;;21.90;37.82
45813;BME280;31519;45.408;10.962;2023-05-01T07:40:33;100622.34;;;22.15;37.52
45813;BME280;31519;45.408;10.962;2023-05-01T07:43:02;100626.38;;;21.84;37.66
45813;BME280;31519;45.408;10.962;2023-05-01T07:45:31;100629.22;;;22.01;36.95
45813;BME280;31519;45.408;10.962;2023-05-01T07:47:59;100619.38;;;21.83;37.32
45813;BME280;31519;45.408;10.962;2023-05-01T07:50:27;100625.47;;;22.17;36.73
45813;BME280;31519;45.408;10.962;2023-05-01T07:52:55;100619.25;;;22.13;36.79
45813;BME280;31519;45.408;10.962;2023-05-01T07:55:24;100627.56;;;22.48;36.56
45813;BME280;31519;45.408;10.962;2023-05-01T08:16:52;100636.84;;;21.85;36.49
45813;BME280;31519;45.408;10.962;2023-05-01T08:19:22;100633.28;;;22.32;36.03
45813;BME280;31519;45.408;10.962;2023-05-01T08:21:50;100638.00;;;22.39;35.91
45813;BME280;31519;45.408;10.962;2023-05-01T08:24:19;100633.16;;;22.76;35.42
45813;BME280;31519;45.408;10.962;2023-05-01T08:26:47;100631.25;;;22.94;35.36
45813;BME280;31519;45.408;10.962;2023-05-01T08:29:15;100639.78;;;22.96;34.68
45813;BME280;31519;45.408;10.962;2023-05-01T08:31:44;100643.31;;;23.08;34.91
45813;BME280;31519;45.408;10.962;2023-05-01T08:34:12;100643.69;;;23.03;34.90
45813;BME280;31519;45.408;10.962;2023-05-01T08:36:40;100638.66;;;23.12;34.36
45813;BME280;31519;45.408;10.962;2023-05-01T08:39:08;100636.28;;;22.89;34.83
45813;BME280;31519;45.408;10.962;2023-05-01T08:41:36;100638.28;;;23.24;34.33
45813;BME280;31519;45.408;10.962;2023-05-01T08:44:07;100640.59;;;23.08;33.99
45813;BME280;31519;45.408;10.962;2023-05-01T08:49:16;100634.75;;;23.06;34.63
45813;BME280;31519;45.408;10.962;2023-05-01T08:51:49;100637.97;;;23.61;33.68
45813;BME280;31519;45.408;10.962;2023-05-01T08:54:20;100634.44;;;23.35;33.60
45813;BME280;31519;45.408;10.962;2023-05-01T08:56:50;100644.94;;;23.40;33.55
45813;BME280;31519;45.408;10.962;2023-05-01T08:59:21;100632.88;;;23.31;34.03
45813;BME280;31519;45.408;10.962;2023-05-01T09:01:51;100637.53;;;23.13;34.37
45813;BME280;31519;45.408;10.962;2023-05-01T09:04:20;100636.75;;;23.09;34.41
45813;BME280;31519;45.408;10.962;2023-05-01T09:06:49;100644.59;;;23.53;34.01
45813;BME280;31519;45.408;10.962;2023-05-01T09:09:17;100639.53;;;23.76;33.39
45813;BME280;31519;45.408;10.962;2023-05-01T09:11:45;100642.28;;;23.83;33.13
45813;BME280;31519;45.408;10.962;2023-05-01T09:14:13;100644.97;;;23.90;33.71
45813;BME280;31519;45.408;10.962;2023-05-01T09:16:41;100645.34;;;23.57;33.68
45813;BME280;31519;45.408;10.962;2023-05-01T09:19:11;100644.19;;;24.00;32.38
45813;BME280;31519;45.408;10.962;2023-05-01T09:21:39;100646.88;;;24.14;32.30
45813;BME280;31519;45.408;10.962;2023-05-01T09:24:09;100645.19;;;24.70;31.89
45813;BME280;31519;45.408;10.962;2023-05-01T09:26:40;100644.50;;;24.45;31.75
45813;BME280;31519;45.408;10.962;2023-05-01T09:29:09;100646.28;;;24.80;31.97
45813;BME280;31519;45.408;10.962;2023-05-01T09:31:37;100641.31;;;24.57;31.70
45813;BME280;31519;45.408;10.962;2023-05-01T09:34:07;100649.50;;;24.57;31.56
45813;BME280;31519;45.408;10.962;2023-05-01T09:36:35;100642.56;;;24.38;31.58
45813;BME280;31519;45.408;10.962;2023-05-01T09:39:04;100639.03;;;24.48;31.96
45813;BME280;31519;45.408;10.962;2023-05-01T09:41:32;100648.13;;;25.07;31.16
45813;BME280;31519;45.408;10.962;2023-05-01T09:44:02;100630.34;;;24.78;31.61
45813;BME280;31519;45.408;10.962;2023-05-01T09:46:40;100640.06;;;24.83;31.83
45813;BME280;31519;45.408;10.962;2023-05-01T09:49:09;100645.88;;;24.92;31.76
45813;BME280;31519;45.408;10.962;2023-05-01T09:51:37;100647.25;;;24.34;31.92
45813;BME280;31519;45.408;10.962;2023-05-01T09:54:17;100648.41;;;24.29;32.09
45813;BME280;31519;45.408;10.962;2023-05-01T09:56:48;100651.13;;;24.40;31.86
45813;BME280;31519;45.408;10.962;2023-05-01T09:59:18;100643.03;;;23.94;32.59
45813;BME280;31519;45.408;10.962;2023-05-01T10:01:47;100639.09;;;24.27;32.46
45813;BME280;31519;45.408;10.962;2023-05-01T10:04:31;100637.50;;;24.40;31.81
45813;BME280;31519;45.408;10.962;2023-05-01T10:07:10;100637.50;;;24.40;31.67
45813;BME280;31519;45.408;10.962;2023-05-01T10:09:41;100632.81;;;24.44;31.81
45813;BME280;31519;45.408;10.962;2023-05-01T10:12:09;100627.41;;;24.30;32.16
45813;BME280;31519;45.408;10.962;2023-05-01T10:14:50;100630.13;;;24.30;31.62
45813;BME280;31519;45.408;10.962;2023-05-01T10:17:19;100625.53;;;23.88;32.27
45813;BME280;31519;45.408;10.962;2023-05-01T10:19:48;100616.88;;;24.39;31.68
45813;BME280;31519;45.408;10.962;2023-05-01T10:22:16;100616.06;;;24.56;31.83
45813;BME280;31519;45.408;10.962;2023-05-01T10:24:44;100617.09;;;24.80;31.34
45813;BME280;31519;45.408;10.962;2023-05-01T10:27:12;100616.19;;;24.17;31.74
45813;BME280;31519;45.408;10.962;2023-05-01T10:29:41;100607.63;;;23.98;32.16
45813;BME280;31519;45.408;10.962;2023-05-01T10:32:11;100590.09;;;24.27;32.11
45813;BME280;31519;45.408;10.962;2023-05-01T10:34:44;100597.56;;;23.91;32.53
45813;BME280;31519;45.408;10.962;2023-05-01T10:37:30;100588.94;;;24.24;32.66
45813;BME280;31519;45.408;10.962;2023-05-01T10:45:48;100583.13;;;24.22;31.83
45813;BME280;31519;45.408;10.962;2023-05-01T10:51:22;100582.09;;;24.79;31.23
45813;BME280;31519;45.408;10.962;2023-05-01T10:56:41;100589.09;;;24.87;30.92
45813;BME280;31519;45.408;10.962;2023-05-01T10:59:10;100577.84;;;25.33;30.23
45813;BME280;31519;45.408;10.962;2023-05-01T11:01:41;100585.69;;;25.27;30.46
45813;BME280;31519;45.408;10.962;2023-05-01T11:09:37;100580.66;;;24.56;29.84
45813;BME280;31519;45.408;10.962;2023-05-01T11:12:09;100578.34;;;24.48;30.36
45813;BME280;31519;45.408;10.962;2023-05-01T11:20:12;100576.03;;;24.39;30.28
45813;BME280;31519;45.408;10.962;2023-05-01T11:22:44;100573.69;;;24.52;30.54
45813;BME280;31519;45.408;10.962;2023-05-01T11:25:17;100563.97;;;24.47;30.39
45813;BME280;31519;45.408;10.962;2023-05-01T11:27:49;100564.69;;;24.58;30.69
45813;BME280;31519;45.408;10.962;2023-05-01T11:30:17;100563.19;;;25.16;29.87
45813;BME280;31519;45.408;10.962;2023-05-01T11:32:47;100555.66;;;25.31;29.69
45813;BME280;31519;45.408;10.962;2023-05-01T11:37:45;100553.34;;;25.74;29.55
45813;BME280;31519;45.408;10.962;2023-05-01T11:40:22;100553.53;;;25.52;29.79
45813;BME280;31519;45.408;10.962;2023-05-01T11:43:07;100557.25;;;25.28;30.14
45813;BME280;31519;45.408;10.962;2023-05-01T11:45:36;100553.59;;;24.94;29.79
45813;BME280;31519;45.408;10.962;2023-05-01T11:48:13;100546.63;;;24.93;30.23
45813;BME280;31519;45.408;10.962;2023-05-01T11:50:42;100546.16;;;25.01;30.25
45813;BME280;31519;45.408;10.962;2023-05-01T11:53:13;100545.09;;;24.81;30.72
45813;BME280;31519;45.408;10.962;2023-05-01T11:55:43;100536.88;;;24.92;30.72
45813;BME280;31519;45.408;10.962;2023-05-01T11:58:11;100539.06;;;25.14;30.34
45813;BME280;31519;45.408;10.962;2023-05-01T12:00:42;100536.97;;;24.70;31.19
45813;BME280;31519;45.408;10.962;2023-05-01T12:03:13;100535.69;;;24.96;30.53
45813;BME280;31519;45.408;10.962;2023-05-01T12:05:43;100540.38;;;24.89;30.42
45813;BME280;31519;45.408;10.962;2023-05-01T12:08:20;100542.78;;;24.76;30.83
45813;BME280;31519;45.408;10.962;2023-05-01T12:10:55;100540.09;;;24.72;30.89
45813;BME280;31519;45.408;10.962;2023-05-01T12:13:24;100537.84;;;24.60;30.97
45813;BME280;31519;45.408;10.962;2023-05-01T12:15:54;100535.25;;;24.32;31.45
45813;BME280;31519;45.408;10.962;2023-05-01T12:18:24;100532.44;;;24.50;30.38
45813;BME280;31519;45.408;10.962;2023-05-01T12:20:53;100532.13;;;24.30;31.40
45813;BME280;31519;45.408;10.962;2023-05-01T12:23:34;100531.84;;;23.96;32.79
45813;BME280;31519;45.408;10.962;2023-05-01T12:26:18;100530.56;;;24.29;32.21
45813;BME280;31519;45.408;10.962;2023-05-01T12:29:02;100525.56;;;24.24;32.27
45813;BME280;31519;45.408;10.962;2023-05-01T12:31:31;100529.56;;;23.80;31.84
45813;BME280;31519;45.408;10.962;2023-05-01T12:34:01;100524.09;;;23.95;32.24
45813;BME280;31519;45.408;10.962;2023-05-01T12:36:31;100526.78;;;24.05;32.31
45813;BME280;31519;45.408;10.962;2023-05-01T12:39:05;100535.66;;;24.20;31.73
45813;BME280;31519;45.408;10.962;2023-05-01T12:41:41;100533.41;;;23.94;32.05
45813;BME280;31519;45.408;10.962;2023-05-01T12:44:24;100533.75;;;24.06;31.88
45813;BME280;31519;45.408;10.962;2023-05-01T12:46:56;100532.16;;;24.26;32.21
45813;BME280;31519;45.408;10.962;2023-05-01T12:49:27;100535.66;;;24.20;31.93
45813;BME280;31519;45.408;10.962;2023-05-01T12:51:58;100529.03;;;24.32;31.95
45813;BME280;31519;45.408;10.962;2023-05-01T12:54:34;100520.63;;;24.74;30.79
45813;BME280;31519;45.408;10.962;2023-05-01T12:57:09;100520.41;;;24.47;31.43
45813;BME280;31519;45.408;10.962;2023-05-01T12:59:38;100522.22;;;24.68;30.96
45813;BME280;31519;45.408;10.962;2023-05-01T13:02:12;100516.28;;;24.84;30.69
45813;BME280;31519;45.408;10.962;2023-05-01T13:04:43;100521.88;;;25.17;30.42
45813;BME280;31519;45.408;10.962;2023-05-01T13:07:18;100512.78;;;24.80;30.84
45813;BME280;31519;45.408;10.962;2023-05-01T13:09:57;100522.69;;;24.52;30.80
45813;BME280;31519;45.408;10.962;2023-05-01T13:12:27;100512.19;;;25.13;30.10
45813;BME280;31519;45.408;10.962;2023-05-01T13:14:56;100527.63;;;24.71;30.78
45813;BME280;31519;45.408;10.962;2023-05-01T13:17:31;100529.31;;;24.51;31.45
45813;BME280;31519;45.408;10.962;2023-05-01T13:20:03;100531.53;;;24.74;31.67
45813;BME280;31519;45.408;10.962;2023-05-01T13:22:36;100520.84;;;24.32;33.11
45813;BME280;31519;45.408;10.962;2023-05-01T13:25:17;100523.59;;;24.24;33.56
45813;BME280;31519;45.408;10.962;2023-05-01T13:27:50;100526.63;;;24.44;33.44
45813;BME280;31519;45.408;10.962;2023-05-01T13:30:29;100525.75;;;24.65;33.35
45813;BME280;31519;45.408;10.962;2023-05-01T13:32:57;100515.81;;;24.30;33.16
45813;BME280;31519;45.408;10.962;2023-05-01T13:35:26;100519.69;;;24.29;33.23
45813;BME280;31519;45.408;10.962;2023-05-01T13:37:54;100514.91;;;24.54;33.77
45813;BME280;31519;45.408;10.962;2023-05-01T13:40:23;100507.03;;;24.67;33.50
45813;BME280;31519;45.408;10.962;2023-05-01T13:42:52;100506.72;;;24.58;33.63
45813;BME280;31519;45.408;10.962;2023-05-01T13:45:21;100501.03;;;24.31;34.47
45813;BME280;31519;45.408;10.962;2023-05-01T13:47:49;100505.53;;;24.59;33.76
45813;BME280;31519;45.408;10.962;2023-05-01T13:50:19;100498.84;;;23.87;34.24
45813;BME280;31519;45.408;10.962;2023-05-01T13:52:47;100507.69;;;24.12;34.29
45813;BME280;31519;45.408;10.962;2023-05-01T13:55:15;100501.09;;;24.17;34.50
45813;BME280;31519;45.408;10.962;2023-05-01T13:57:44;100503.78;;;24.20;34.26
45813;BME280;31519;45.408;10.962;2023-05-01T14:00:16;100507.00;;;23.91;35.47
45813;BME280;31519;45.408;10.962;2023-05-01T14:02:47;100500.72;;;24.08;35.65